Bossangoa Airport

Jump to: basic info | weather | comments

Related pages: nearby airports | nearby navaids | notams | map

Basic information (top)

Codes: BSN FEFS
Location: lon 6.492000, lat 17.429001, elev 1,637 ft / 499 m msl
Status: small_airport
Scheduled airline service: no
Links: Wikipedia Mobile

Weather (top)

Current conditions (rec'd 2010/06/15 05:00Z):

FEFS 150500Z /////KT 9999 TS SCT040CB OVC150 24/23 Q////

Airport forecast for Raga Airport 505nm (936km) ENE (rec'd 2014/04/09 06:00Z):

TAF HSRJ 090400Z 0906/1012 18005G15KT 9999 SCT040 BKN140 
      TEMPO 0912/0918 6000 TSRA FEW045CB 
      TEMPO 0918/0924 9999 SCT040 BKN140

Latest comments (top)

No comments yet for Bossangoa Airport

More... (top)

See also NOTAMs and nearby airports and navaids, or visit the Bossangoa Airport page at the main OurAirports website..